Terminal Aerodrome Forecast
Issued by NWS Mobile, AL

Home | Current Version | Previous Version | Text Only | Print | Product List | Glossary On
Versions: 1 2 3 4 5 6 7 8 9 10 11 12 13 14 15 16 17 18 19 20 21 22 23 24 25 26 27
000
FTUS44 KMOB 010500 RRA
TAFPNS
TAF
KPNS 010550Z 0106/0206 09004KT P6SM FEW030
     FM011000 00000KT 4SM BR SCT010
     FM011400 07004KT P6SM FEW010=

USA.gov is the U.S. government's official web portal to all federal, state and local government web resources and services.